Flight Track Log - Related Links

Times and Time Zones

All times are in EDT time to prevent confusion due to time zone crossing. See the UAL3767 flight status page for this flight to view local times or setup timezone preferences in your user account.

Time Position Orientation Groundspeed Altitude Reporting Facility
EDT Latitude Longitude Course Direction KTS MPH feet Rate Location/Type
Sat 09:11:44 AM 26.3053 -80.4650 337° Northwest 368 423 15,900  Level Miami Center
Sat 09:14:00 AM 26.5669 -80.4106 334° Northwest  Level Estimated
Sat 09:16:44 AM 26.8192 -80.7067 341° North 408 470 22,600  Level Miami Center
Sat 09:17:44 AM 26.9308 -80.7500 341° North 413 475 23,900 1,150 Climbing Miami Center
Sat 09:18:44 AM 27.0425 -80.7908 342° North 418 481 24,900 950 Climbing Miami Center
Sat 09:19:44 AM 27.1583 -80.8297 343° North 423 487 25,800 950 Climbing Miami Center
Sat 09:20:44 AM 27.2739 -80.8736 341° North 428 493 26,800 900 Climbing Miami Center
Sat 09:21:00 AM 27.3747 -80.2411 342° North  Level Estimated
Sat 09:21:44 AM 27.3794 -80.9075 344° North 433 498 27,600  Level Miami Center
Sat 09:22:00 AM 27.4901 -80.2167 341° North  Level Estimated
Sat 09:22:44 AM 27.4953 -80.9492 342° North 433 498 28,500  Level Miami Center
Sat 09:23:44 AM 27.6131 -80.9931 342° North 438 504 29,300 800 Climbing Miami Center
Sat 09:24:44 AM 27.7350 -81.0350 343° North 438 504 30,100 800 Climbing Miami Center
Sat 09:25:44 AM 27.8544 -81.0817 341° North 438 504 30,900 900 Climbing Miami Center
Sat 09:26:44 AM 27.9764 -81.1286 341° North 447 514 31,900 1,050 Climbing Miami Center
Sat 09:27:44 AM 28.1083 -81.1783 342° North 447 514 33,000 1,000 Climbing Miami Center
Sat 09:29:26 AM 28.3086 -81.2517 342° North 448 516 34,600 963 Climbing Jacksonville Center
Sat 09:30:26 AM 28.4217 -81.2900 343° North 443 510 35,600 1,000 Climbing Jacksonville Center
Sat 09:31:26 AM 28.5350 -81.3331 342° North 432 497 36,600 700 Climbing Jacksonville Center
Sat 09:32:26 AM 28.6539 -81.3478 354° North 426 490 37,000 200 Climbing Jacksonville Center
Sat 09:33:26 AM 28.7772 -81.3600 355° North 433 498 37,000  Level Jacksonville Center
Sat 09:34:26 AM 28.9047 -81.3722 355° North 446 513 37,000  Level Jacksonville Center
Sat 09:35:26 AM 29.0322 -81.3822 356° North 452 520 37,000  Level Jacksonville Center
Sat 09:36:26 AM 29.1675 -81.3636 North 468 539 37,000  Level Jacksonville Center
Sat 09:37:26 AM 29.2967 -81.3233 15° North 468 539 37,000  Level Jacksonville Center
Sat 09:38:26 AM 29.4275 -81.2783 17° North 473 544 37,000  Level Jacksonville Center
Sat 09:39:26 AM 29.5542 -81.2358 16° North 473 544 37,000  Level Jacksonville Center
Sat 09:40:26 AM 29.6853 -81.1975 14° North 473 544 37,000  Level Jacksonville Center
Sat 09:41:26 AM 29.8039 -81.1572 16° North 479 551 37,000  Level Jacksonville Center
Sat 09:42:26 AM 29.9369 -81.1167 15° North 479 551 37,000  Level Jacksonville Center
Sat 09:43:26 AM 30.0656 -81.0733 16° North 479 551 37,000  Level Jacksonville Center
Sat 09:44:26 AM 30.1986 -81.0275 17° North 479 551 37,000  Level Jacksonville Center
Sat 09:45:26 AM 30.3294 -80.9867 15° North 484 557 37,000  Level Jacksonville Center
Sat 09:46:26 AM 30.4625 -80.9431 16° North 484 557 37,000  Level Jacksonville Center
Sat 09:47:26 AM 30.5933 -80.9017 15° North 484 557 37,000  Level Jacksonville Center
Sat 09:48:26 AM 30.7242 -80.8578 16° North 489 563 37,000  Level Jacksonville Center
Sat 09:49:26 AM 30.8572 -80.8161 15° North 489 563 37,000  Level Jacksonville Center
Sat 09:50:26 AM 30.9881 -80.7722 16° North 489 563 37,000  Level Jacksonville Center
Sat 09:51:26 AM 31.1167 -80.7281 16° North 489 563 37,000  Level Jacksonville Center
Sat 09:52:26 AM 31.2453 -80.6839 16° North 484 557 37,000  Level Jacksonville Center
Sat 09:53:26 AM 31.3825 -80.6439 14° North 484 557 37,000  Level Jacksonville Center
Sat 09:54:26 AM 31.5089 -80.5972 17° North 489 563 37,000  Level Jacksonville Center
Sat 09:55:26 AM 31.6542 -80.5472 16° North 484 557 37,000  Level Jacksonville Center
Sat 09:56:26 AM 31.7869 -80.5047 15° North 476 548 37,000  Level Jacksonville Center
Sat 09:57:26 AM 31.9053 -80.4650 16° North 476 548 37,000  Level Jacksonville Center
Sat 09:58:26 AM 32.0483 -80.4169 16° North 486 559 37,000  Level Jacksonville Center
Sat 09:59:26 AM 32.1811 -80.3717 16° North 493 567 37,000  Level Jacksonville Center
Sat 10:00:26 AM 32.3139 -80.3239 17° North 488 562 37,000  Level Jacksonville Center
Sat 10:01:26 AM 32.4486 -80.2806 15° North 488 562 37,000  Level Jacksonville Center
Sat 10:02:26 AM 32.5792 -80.2350 16° North 488 562 37,000  Level Jacksonville Center
Sat 10:03:26 AM 32.7139 -80.1892 16° North 488 562 37,000  Level Jacksonville Center
Sat 10:04:26 AM 32.8464 -80.1406 17° North 488 562 37,000  Level Jacksonville Center
Sat 10:05:26 AM 32.9811 -80.0969 15° North 493 567 37,000  Level Jacksonville Center
Sat 10:06:26 AM 33.1072 -80.0458 19° North 506 582 37,000  Level Jacksonville Center
Sat 10:07:26 AM 33.2419 -80.0042 15° North 506 582 37,000  Level Jacksonville Center
Sat 10:08:26 AM 33.3725 -79.9603 16° North 501 577 37,000  Level Jacksonville Center
Sat 10:09:26 AM 33.5050 -79.9136 16° North 494 568 37,000  Level Jacksonville Center
Sat 10:10:26 AM 33.6394 -79.8689 15° North 489 563 37,000  Level Jacksonville Center
Sat 10:11:26 AM 33.7739 -79.8194 17° North 489 563 37,000  Level Jacksonville Center
Sat 10:12:26 AM 33.9083 -79.7722 16° North 489 563 37,000  Level Jacksonville Center
Sat 10:13:26 AM 34.0428 -79.7272 16° North 489 563 37,000  Level Jacksonville Center
Sat 10:14:26 AM 34.1747 -79.6647 21° North 489 563 37,000  Level Jacksonville Center
Sat 10:16:20 AM 34.4111 -79.5417 23° Northeast 504 580 37,000  Level Washington Center
Sat 10:17:18 AM 34.5428 -79.4772 22° Northeast 504 580 37,000  Level Washington Center
Sat 10:18:19 AM 34.6722 -79.4053 25° Northeast 504 580 37,000  Level Washington Center
Sat 10:19:20 AM 34.8039 -79.3356 23° Northeast 504 580 37,000  Level Washington Center
Sat 10:20:18 AM 34.9353 -79.2656 24° Northeast 504 580 37,000  Level Washington Center
Sat 10:21:18 AM 35.0689 -79.1956 23° Northeast 504 580 37,000  Level Washington Center
Sat 10:22:20 AM 35.2006 -79.1250 24° Northeast 509 586 37,000  Level Washington Center
Sat 10:23:20 AM 35.3317 -79.0572 23° Northeast 509 586 37,000  Level Washington Center
Sat 10:24:18 AM 35.4675 -78.9839 24° Northeast 509 586 37,000  Level Washington Center
Sat 10:25:18 AM 35.5989 -78.9128 24° Northeast 509 586 37,000 -347 Level Washington Center
Sat 10:26:19 AM 35.7322 -78.8392 24° Northeast 509 586 36,300 -1,636 Descending Washington Center
Sat 10:27:19 AM 35.8658 -78.7650 24° Northeast 509 586 33,700 -2,529 Descending Washington Center
Sat 10:28:20 AM 36.0139 -78.6864 23° Northeast 509 586 31,200 -2,521 Descending Washington Center
Sat 10:29:18 AM 36.1494 -78.6092 25° Northeast 516 594 28,700 -2,136 Descending Washington Center
Sat 10:30:18 AM 36.2847 -78.5347 24° Northeast 522 601 27,000 -850 Descending Washington Center
Sat 10:31:18 AM 36.4139 -78.4619 24° Northeast 522 601 27,000  Level Washington Center
Sat 10:32:19 AM 36.5406 -78.3917 24° Northeast 503 579 27,000  Level Washington Center
Sat 10:33:20 AM 36.6675 -78.3211 24° Northeast 503 579 27,000  Level Washington Center
Sat 10:34:17 AM 36.8028 -78.2431 25° Northeast 508 585 27,000  Level Washington Center
Sat 10:35:18 AM 36.9358 -78.1669 25° Northeast 514 592 27,000  Level Washington Center
Sat 10:36:19 AM 37.0708 -78.0908 24° Northeast 526 605 27,000  Level Washington Center
Sat 10:37:19 AM 37.1956 -78.0219 24° Northeast 535 616 27,000  Level Washington Center
Sat 10:38:20 AM 37.3411 -77.9350 25° Northeast 530 610 27,000 -655 Level Washington Center
Sat 10:39:18 AM 37.4719 -77.8631 24° Northeast 523 602 25,700 -1,815 Descending Washington Center
Sat 10:40:19 AM 37.5919 -77.7933 25° Northeast 493 567 23,400 -2,033 Descending Washington Center
Sat 10:41:19 AM 37.7011 -77.7572 15° North 433 498 21,600 -2,083 Descending Washington Center
Sat 10:42:20 AM 37.8058 -77.7417 North 399 459 19,200 -2,370 Descending Washington Center
Sat 10:43:18 AM 37.9061 -77.7183 10° North 386 444 16,900 -2,339 Descending Washington Center
Sat 10:44:18 AM 37.9889 -77.6389 37° Northeast 354 407 14,600 -2,050 Descending Washington Center
Sat 10:45:18 AM 38.0589 -77.5697 38° Northeast 354 407 12,800 -1,869 Descending Washington Center
Sat 10:46:20 AM 38.1331 -77.4978 37° Northeast 349 402 10,800 -1,377 Descending Washington Center
Sat 10:47:20 AM 38.2197 -77.4286 32° Northeast 339 390 10,000 -661 Descending Washington Center
Sat 10:48:18 AM 38.3017 -77.3775 26° Northeast 332 382 9,500 -1,017 Descending Washington Center
Sat 10:49:18 AM 38.3856 -77.3583 10° North 304 350 8,000 -1,450 Descending Washington Center
Sat 10:50:18 AM 38.4689 -77.3606 359° North 299 344 6,600 -1,240 Descending Washington Center
Sat 10:51:19 AM 38.5458 -77.3650 357° North 285 328 5,500 -984 Descending Washington Center
Sat 10:52:20 AM 38.6250 -77.3669 359° North 279 321 4,600 -848 Descending Washington Center
Sat 10:52:51 AM 38.6667 -77.3667 360° North 280 322 4,200 -396 Descending Potomac TRACON
Sat 10:53:51 AM 38.7500 -77.3667 360° North 278 320 4,000 -100 Descending Potomac TRACON
Sat 10:54:51 AM 38.8167 -77.3500 11° North 281 323 4,000  Level Potomac TRACON
Sat 10:55:51 AM 38.9000 -77.3500 360° North 280 322 4,000  Level Potomac TRACON
Sat 10:56:51 AM 38.9833 -77.3500 360° North 279 321 4,000 -150 Level Potomac TRACON
Sat 10:57:51 AM 39.0667 -77.3500 360° North 272 313 3,700 -496 Descending Potomac TRACON
Sat 10:58:52 AM 39.1333 -77.3500 360° North 265 305 3,000 -365 Descending Potomac TRACON
Sat 10:59:46 AM 39.2000 -77.3333 11° North 246 283 3,000  Level Potomac TRACON
Sat 11:00:52 AM 39.2333 -77.4000 303° West 235 270 3,000  Level Potomac TRACON
Sat 11:01:52 AM 39.2000 -77.4333 218° Southwest 207 238 3,000  Level Potomac TRACON
Sat 11:02:52 AM 39.1333 -77.4333 180° South 199 229 3,000 -50 Level Potomac TRACON
Sat 11:03:52 AM 39.0833 -77.4333 180° South 196 226 2,900 -595 Descending Potomac TRACON
Sat 11:04:53 AM 39.0333 -77.4333 180° South 175 201 1,800 -850 Descending Potomac TRACON
Sat 11:05:59 AM 39.0000 -77.4333 180° South 131 151 1,100 -636 Descending Potomac TRACON
Sat 11:07:00 AM 38.9474 -77.4599 195° South  Level Estimated
Sat 11:14:00 AM 38.9474 -77.4599 195° South  Level Estimated
Sat 11:15:00 AM 38.9474 -77.4599 195° South  Level Estimated

Login

Don't have an account? Register now (free) for customized features, flight alerts, and more!